Statewide Weather Sensors

Route Weather Station Name Milepost Date / Time Surface Status Surface Temp Precip Intensity Wind Avg Wind Gust Dir Dewpoint Humidity Air Temp Visibility
I 25 Wyo Hill 3.52 Nov 13, 2019 08:32 pm     None None 1 mph 2 mph SE 26.6°F 72% 33.8°F > 1/2 mi
I 25 Whitaker 30.2 Nov 13, 2019 08:32 pm Wet 36.5°F Rain None 2 mph 4 mph SW 32.0°F 99% 32.0°F > 1/2 mi
I 25 Bear Creek 46.77 Nov 13, 2019 08:32 pm Wet 37.4°F None None 2 mph 5 mph SW 28.4°F 82% 32.0°F > 1/2 mi
I 25 Bordeaux 70.8 Nov 13, 2019 08:32 pm Trace Moisture 42.1°F None   2 mph 2 mph S 28.4°F 67% 39.2°F  
I 25 Coleman 98.7 Nov 13, 2019 08:32 pm N/A   None None 2 mph 4 mph NW 28.4°F 74% 35.6°F > 1/2 mi
I 25 Platte/Converse County Line 119.9 Nov 13, 2019 08:32 pm Dry 36.9°F None None 7 mph 7 mph NE 32.0°F 77% 19.4°F > 1/2 mi
I 25 Deer Creek 164.2 Nov 13, 2019 08:32 pm Dry 41.0°F None None 8 mph 10 mph E 28.4°F 72% 37.4°F > 1/2 mi
I 25 Hat Six 181.67 Nov 13, 2019 08:32 pm Dry 39.2°F None None 2 mph 7 mph W 28.4°F 76% 35.6°F > 1/2 mi
I 25 F Street Hill 189.51 Nov 13, 2019 08:32 pm Dry 38.3°F None None 7 mph 9 mph NE 28.4°F 77% 35.6°F > 1/2 mi
I 25 Twenty Mile Hill 207.2 Nov 13, 2019 08:32 pm     Rain None 7 mph 9 mph NE 30.2°F 82% 33.8°F > 1/2 mi
I 25 Smokey Gap 228.58 Nov 13, 2019 08:32 pm Dry 36.5°F None None 1 mph 2 mph NW 30.2°F 77% 35.6°F > 1/2 mi
I 25 Tisdale 238.87 Nov 13, 2019 08:33 pm Dry 35.1°F None None 2 mph 4 mph NW 32.0°F 81% 37.4°F > 1/2 mi
I 25 I-25 Divide 267.3 Nov 13, 2019 08:32 pm N/A   Light None 3 mph 4 mph N 33.8°F 92% 35.6°F > 1/2 mi
I 80 Evanston POE .06 Nov 13, 2019 08:32 pm Dry 28.8°F None   0 mph 1 mph W 21.2°F 68% 30.2°F > 1/2 mi
I 80 Evanston 4.2 Nov 13, 2019 08:32 pm Dry 60.1°F None None 4 mph 7 mph SW 23.0°F 65% 33.8°F > 1/2 mi
I 80 Bear River Drive 6.94 Nov 13, 2019 08:32 pm Dry 29.5°F None   0 mph 4 mph E 19.4°F 76% 24.8°F > 1/2 mi
I 80 Painter 10.16 Nov 13, 2019 08:32 pm Dry 36.1°F None   0 mph 1 mph N        
I 80 First Divide 13.86 Nov 13, 2019 08:32 pm N/A   None   2 mph 3 mph SW 21.2°F 66% 32.0°F  
I 80 US 189 Interchange 17.66 Nov 13, 2019 08:32 pm Dry 39.4°F None None 8 mph 12 mph W 24.8°F 59% 37.4°F > 1/2 mi
I 80 Coal Road 20.95 Nov 13, 2019 08:32 pm Dry 39.4°F None None 4 mph 6 mph S 23.0°F 65% 33.8°F > 1/2 mi
I 80 Leroy 23.35 Nov 13, 2019 08:32 pm Dry 40.1°F None None 6 mph 9 mph W 24.8°F 58% 37.4°F > 1/2 mi
I 80 French 27.6 Nov 13, 2019 08:32 pm Dry 39.9°F None None 13 mph 17 mph W 23.0°F 59% 37.4°F > 1/2 mi
I 80 Church Butte 52.65 Nov 13, 2019 08:32 pm N/A   None None 4 mph 10 mph NW 24.8°F 63% 37.4°F > 1/2 mi
I 80 Peru Hill 82.31 Nov 13, 2019 08:32 pm N/A   None   4 mph 7 mph W 14.0°F 40% 37.4°F  
I 80 Green River Tunnel 90.5 Nov 13, 2019 08:32 pm Dry 42.6°F None   2 mph 9 mph NW 21.2°F 46% 41.0°F  
I 80 Rock Springs West 97.9 Nov 13, 2019 08:32 pm Dry 41.9°F None None 11 mph 16 mph NW 24.8°F 53% 41.0°F > 1/2 mi
I 80 Baxter Road 111.5 Nov 13, 2019 08:32 pm     None None 1 mph 16 mph   26.6°F 58% 39.2°F > 1/2 mi
I 80 Mile Marker 124.5 124.5 Nov 13, 2019 08:32 pm N/A   None None 1 mph 4 mph NE 23.0°F 67% 33.8°F > 1/2 mi
I 80 Point of Rocks 129.8 Nov 13, 2019 08:32 pm N/A   None None 9 mph 12 mph NE 24.8°F 70% 33.8°F > 1/2 mi
I 80 Bitter Creek 141.83 Nov 13, 2019 08:32 pm Trace Moisture 36.9°F None   9 mph 14 mph W 17.6°F 51% 32.0°F  
I 80 Tipton 156.72 Nov 13, 2019 08:32 pm Dry 33.4°F None None 8 mph 11 mph SW 23.0°F 75% 30.2°F > 1/2 mi
I 80 Continental Divide 184.3 Nov 13, 2019 08:32 pm N/A   None   4 mph 6 mph W 19.4°F 70% 26.6°F  
I 80 Sinclair 221.7 Nov 13, 2019 08:32 pm N/A   None None 4 mph 6 mph W 24.8°F 64% 35.6°F > 1/2 mi
I 80 Walcott Junction 234.66 Nov 13, 2019 08:32 pm N/A   None None 3 mph 5 mph N 24.8°F 68% 33.8°F > 1/2 mi
I 80 Dana Ridge 244.8 Nov 13, 2019 08:32 pm Dry 39.0°F None None 4 mph 6 mph W 23.0°F 61% 35.6°F > 1/2 mi
I 80 Mile Marker 249.1 249.1 Nov 13, 2019 08:32 pm Dry 37.4°F None None 6 mph 8 mph NE 23.0°F 61% 35.6°F > 1/2 mi
I 80 Halleck Ridge 252.16 Nov 13, 2019 08:32 pm N/A   None None 9 mph 11 mph N 21.2°F   33.8°F > 1/2 mi
I 80 Elk Mountain 256.17 Nov 13, 2019 08:32 pm Trace Moisture 37.2°F None None 0 mph 0 mph N 23.0°F 65% 33.8°F > 1/2 mi
I 80 County Road 402 262 Nov 13, 2019 08:32 pm Dry 36.5°F None None 0 mph 0 mph N 23.0°F 64% 33.8°F > 1/2 mi
I 80 Wagonhound 266.58 Nov 13, 2019 08:32 pm Dry 37.2°F None None 5 mph 10 mph NW 23.0°F 59% 35.6°F > 1/2 mi
I 80 Foote Creek 269.5 Nov 13, 2019 08:32 pm Dry 38.3°F None None 5 mph 6 mph NW 23.0°F 64% 33.8°F > 1/2 mi
I 80 Arlington 271.8 Nov 13, 2019 08:32 pm N/A 38.8°F None None 7 mph 11 mph NE -14.8°F 12% 32.0°F > 1/2 mi
I 80 Arlington East 273.85 Nov 13, 2019 08:32 pm Dry 38.1°F None None 2 mph 5 mph NE 23.0°F 74% 30.2°F > 1/2 mi
I 80 Cooper Cove 279.36 Nov 13, 2019 08:32 pm N/A   None None 3 mph 7 mph W 23.0°F 71% 32.0°F > 1/2 mi
I 80 Strouss Hill 283.75 Nov 13, 2019 08:32 pm Dry 36.3°F None None 3 mph 5 mph E 23.0°F 69% 30.2°F > 1/2 mi
I 80 Quealy Dome 289.5 Nov 13, 2019 08:32 pm Dry 36.3°F None None 1 mph 3 mph W 24.8°F 71% 32.0°F > 1/2 mi
I 80 Herrick Lane 297.66 Nov 13, 2019 08:32 pm N/A   None None 2 mph 5 mph SW 21.2°F   28.4°F > 1/2 mi
I 80 Summit East 325.8 Nov 13, 2019 08:32 pm Dry 33.4°F None None 11 mph 15 mph S 26.6°F 97% 26.6°F > 1/2 mi
I 80 Vedauwoo 329.4 Nov 13, 2019 08:32 pm Trace Moisture 34.9°F None None 14 mph 16 mph S 24.8°F 91% 28.4°F > 1/2 mi
I 80 Lone Tree 333.32 Nov 13, 2019 08:32 pm Dry 34.9°F None None 7 mph 11 mph SE 26.6°F 89% 28.4°F > 1/2 mi
I 80 Buford East 336.1 Nov 13, 2019 08:32 pm Dry 36.1°F None None 7 mph 11 mph S 30.2°F   28.4°F > 1/2 mi
I 80 Remount Road 340.5 Nov 13, 2019 08:32 pm N/A   None None 2 mph 6 mph S 26.6°F 89% 30.2°F > 1/2 mi
I 80 Otto 347.69 Nov 13, 2019 08:32 pm Dry 37.8°F None None 1 mph 2 mph S 28.4°F 86% 32.0°F > 1/2 mi
I 80 MP 353 353 Nov 13, 2019 08:32 pm Trace Moisture 39.6°F Light None 1 mph 3 mph SE 26.6°F 80% 32.0°F > 1/2 mi
I 80 Cheyenne East 373 Nov 13, 2019 08:32 pm Wet 39.9°F Snow None 3 mph 7 mph E 28.4°F 73% 35.6°F > 1/2 mi
I 90 Montana State Line .1 Nov 13, 2019 08:32 pm Trace Moisture 31.8°F None None 2 mph 4 mph E 32.0°F 90% 35.6°F > 1/2 mi
I 90 Pompey Creek 35.3 Nov 13, 2019 08:32 pm N/A   None None 5 mph 11 mph N   96% 21.2°F > 1/2 mi
I 90 Sheridan/Johnson County Line 41.33 Nov 13, 2019 08:32 pm Wet   None None 5 mph 7 mph SE   84% 23.0°F > 1/2 mi
I 90 Piney Creek Interchange 44.7 Nov 13, 2019 08:32 pm Wet 33.8°F None None 1 mph 4 mph N 33.8°F 92% 35.6°F > 1/2 mi
I 90 Kearny Divide 45.33 Nov 13, 2019 08:32 pm N/A   None None 2 mph 4 mph N   24% 23.0°F > 1/2 mi
I 90 Indian Creek Road 83.3 Nov 13, 2019 08:32 pm Trace Moisture 34.7°F None None 5 mph 7 mph SW 32.0°F 81% 37.4°F > 1/2 mi
I 90 Dead Horse 91.5 Nov 13, 2019 08:32 pm Trace Moisture 37.4°F None None 0 mph 2 mph E 33.8°F 95% 35.6°F > 1/2 mi
I 90 Mile Marker 108 108 Nov 13, 2019 08:32 pm N/A   Light None 1 mph 2 mph W 32.0°F 86% 35.6°F > 1/2 mi
I 90 Inyan Kara 170.5 Oct 30, 2019 04:20 pm                      
I 90 Beulah 205.9 Nov 13, 2019 08:32 pm Dry 32.0°F None None 2 mph 4 mph W 30.2°F 91% 33.8°F > 1/2 mi
US 14 Ucross 27.83 Nov 13, 2019 08:32 pm Wet 34.3°F None None 2 mph 2 mph S 32.0°F 99% 32.0°F N/A
US 14 Granite Pass 38.95 Nov 13, 2019 08:32 pm N/A   None None 21 mph 29 mph NE 19.4°F 91% 23.0°F > 1/2 mi
US 16 Big Horn County Line 44.01 Nov 13, 2019 08:32 pm Snow Warning 24.3°F None None 1 mph 2 mph E 19.4°F 85% 23.0°F > 1/2 mi
US 191 Farson 40.45 Nov 13, 2019 08:32 pm N/A   None None 11 mph 14 mph SW 17.6°F 59% 30.2°F > 1/2 mi
US 191 Rim US 191 127 Jul 30, 2019 02:34 pm                      
US 20 Natrona 30 Nov 13, 2019 08:32 pm Trace Moisture 35.6°F None None 5 mph 8 mph NE 28.4°F 82% 33.8°F > 1/2 mi
US 20 Hiland 57.4 Nov 13, 2019 08:30 pm N/A 34.3°F None None 13 mph 15 mph NE 28.4°F 87% 32.0°F > 1/2 mi
US 20 Van Tassell 57.85 Nov 13, 2019 08:32 pm N/A   None None 7 mph 11 mph N 30.2°F 89% 32.0°F > 1/2 mi
US 26 Wind River Lake 26.05 Nov 13, 2019 08:32 pm Ice Watch 20.8°F None None 1 mph 3 mph E 14.0°F 79% 19.4°F > 1/2 mi
US 287 Pumpkin Vine 420.4 Nov 13, 2019 08:32 pm N/A   None None 11 mph 14 mph S 28.4°F 99% 28.4°F > 1/2 mi
US 30 Sage Junction 34 Nov 13, 2019 08:32 pm N/A   None None 5 mph 6 mph N        
US 30 Nugget Canyon 39.7 Nov 13, 2019 08:32 pm N/A   None None 2 mph 2 mph S 21.2°F 73% 28.4°F > 1/2 mi
US 85 Gun Barrel 46.8 Nov 13, 2019 08:32 pm N/A 36.1°F None None 6 mph 8 mph S 28.4°F 80% 33.8°F  
US 85 Four Corners 247.2 Nov 13, 2019 08:32 pm Snow Warning 31.5°F None None 1 mph 3 mph W 28.4°F 100% 28.4°F > 1/2 mi
WY 120 Meeteetse 61.5 Nov 13, 2019 08:32 pm Wet 38.7°F None   12 mph 13 mph SW 30.2°F 88% 33.8°F  
WY 210 Wildcat Trail 21.52 Nov 13, 2019 08:32 pm Trace Moisture 36.9°F None None 3 mph 5 mph SE 26.6°F 89% 30.2°F > 1/2 mi
WY 210 Hynds Lodge Road 24.55 Nov 13, 2019 08:32 pm Trace Moisture 36.0°F None None 3 mph 6 mph SE 28.4°F 93% 30.2°F > 1/2 mi
WY 22 Teton Pass 11.2 Nov 13, 2019 08:32 pm Ice Watch 25.0°F None None 1 mph 2 mph NW 23.0°F 94% 24.8°F > 1/2 mi
WY 220 Pathfinder Hill 80.1 Nov 13, 2019 08:32 pm Dry 36.9°F None None 7 mph 11 mph N 24.8°F 70% 33.8°F > 1/2 mi
WY 230 Skyline 230 113.2 Nov 13, 2019 08:32 pm Dry 31.3°F None None 4 mph 7 mph W 23.0°F 67% 32.0°F > 1/2 mi
WY 258 Outer Drive 13.77 Nov 13, 2019 08:32 pm Dry 40.1°F None None 4 mph 10 mph E 28.4°F 71% 37.4°F > 1/2 mi
WY 28 New South Pass 41.4 Nov 13, 2019 08:32 pm Dry 27.1°F None None 12 mph 15 mph N 17.6°F 56% 32.0°F > 1/2 mi
WY 28 Lower Red Canyon 59.71 Nov 13, 2019 08:32 pm Chemically Wet 31.5°F None None 2 mph 4 mph S 23.0°F 64% 33.8°F > 1/2 mi
WY 296 Chief Joseph 32.96 Sep 10, 2019 08:10 am                      
WY 372 Shute Creek 36 Nov 13, 2019 08:32 pm Dry 33.6°F None   6 mph 8 mph W 24.8°F 68% 35.6°F  
WY 387 Pine Tree Junction 131.79 Nov 13, 2019 08:32 pm N/A   None   10 mph 12 mph W 33.8°F 97% 33.8°F  
WY 487 Shirley Rim 37 Nov 13, 2019 08:32 pm Trace Moisture 33.8°F None None 5 mph 6 mph NW 26.6°F 86% 30.2°F > 1/2 mi
WY 59 Belle Fourche 87 Nov 13, 2019 08:32 pm Dry 36.9°F None   5 mph 7 mph W 33.8°F   33.8°F  
WY 789 Beaver Rim 48.1 Sep 11, 2019 01:40 pm                      

Contact Us Copyright 2019 Disclaimer Privacy Policy Media